• Join FlightAware (Why Join?)
  • Login
  • US Flag 
05:14PM EDT


 

Airport Tracker/Info


-or-


 

Live Flight TrackerFlight Track Log ✈ CTL17 ✈ 24-Jun-2013 ✈ KMBS - KYIP

Flight Track Log - Related Links

Times and Time Zones

All times are in EDT time to prevent confusion due to time zone crossing. See the CTL17 flight status page for this flight to view local times or setup timezone preferences in your user account.

Time Position Orientation Groundspeed Altitude Reporting Facility
EDT Latitude Longitude Course Direction KTS MPH feet Rate Location/Type
04:49PM 43.3619 -84.0057 160° South  Level Estimated
04:50PM 43.3366 -83.9838 148° Southeast  Level FlightAware Approximate
04:51PM 43.3080 -83.9718 160° South  Level Estimated
04:52PM 43.2807 -83.9553 156° South  Level FlightAware Approximate
04:53PM 43.2533 -83.9388 156° South  Level FlightAware Approximate
04:54PM 43.2247 -83.9271 163° South  Level Estimated
04:55PM 43.1965 -83.9134 161° South  Level FlightAware Approximate
04:56PM 43.1683 -83.8997 161° South  Level FlightAware Approximate
04:57PM 43.1401 -83.8861 161° South  Level FlightAware Approximate
04:58PM 43.1115 -83.8746 160° South  Level Estimated
04:58PM 42.9019 -83.7664 165° South 171 197 5,200  Level Cleveland Center
04:59PM 43.0835 -83.8603 160° South  Level FlightAware Approximate
04:59PM 42.8525 -83.7411 159° South 170 196 5,200  Level Cleveland Center
05:00PM 43.0555 -83.8461 160° South  Level FlightAware Approximate
05:00PM 42.8092 -83.7275 167° South 173 199 5,200  Level Cleveland Center
05:01PM 43.0275 -83.8318 160° South  Level FlightAware Approximate
05:01PM 42.7617 -83.7111 166° South 171 197 5,200  Level Cleveland Center
05:02PM 42.9995 -83.8176 160° South  Level FlightAware Approximate
05:02PM 42.7119 -83.6944 166° South 171 197 5,100  Level Cleveland Center
05:03PM 42.6686 -83.6781 164° South 167 192 5,100  Level Cleveland Center
05:04PM 42.6192 -83.6589 164° South 169 194 5,100 -240 Level Cleveland Center
05:05PM 42.5758 -83.6425 164° South 172 198 4,700 -600 Descending Cleveland Center
05:06PM 42.5222 -83.6231 165° South 188 216 3,900 -780 Descending Cleveland Center
05:07PM 42.4725 -83.6067 166° South 182 209 3,200 -600 Descending Cleveland Center
05:08PM 42.4253 -83.5847 161° South 176 203 2,800 -360 Descending Cleveland Center
05:09PM 42.3819 -83.5628 159° South 172 198 2,500 -360 Descending Cleveland Center
05:10PM 42.3347 -83.5411 161° South 166 191 2,100 -300 Descending Cleveland Center
05:11PM 42.2911 -83.5278 167° South 157 181 1,900 -480 Descending Cleveland Center
05:12PM 42.2558 -83.5206 171° South 104 120 1,200 -720 Descending Cleveland Center